sensor_id;sensor_type;location;lat;lon;timestamp;P1;durP1;ratioP1;P2;durP2;ratioP2
58017;SDS011;43810;50.860;19.226;2024-01-30T00:01:50;24.02;;;10.20;;
58017;SDS011;43810;50.860;19.226;2024-01-30T00:04:16;18.85;;;8.90;;
58017;SDS011;43810;50.860;19.226;2024-01-30T00:06:43;23.92;;;11.65;;
58017;SDS011;43810;50.860;19.226;2024-01-30T00:09:09;28.27;;;12.65;;
58017;SDS011;43810;50.860;19.226;2024-01-30T00:11:36;23.42;;;10.25;;
58017;SDS011;43810;50.860;19.226;2024-01-30T00:14:03;26.48;;;10.38;;
58017;SDS011;43810;50.860;19.226;2024-01-30T00:16:29;35.95;;;12.00;;
58017;SDS011;43810;50.860;19.226;2024-01-30T00:18:55;35.00;;;13.15;;
58017;SDS011;43810;50.860;19.226;2024-01-30T00:21:21;26.10;;;10.43;;
58017;SDS011;43810;50.860;19.226;2024-01-30T00:23:47;23.73;;;10.30;;
58017;SDS011;43810;50.860;19.226;2024-01-30T00:26:13;42.78;;;12.70;;
58017;SDS011;43810;50.860;19.226;2024-01-30T00:28:40;38.72;;;13.27;;
58017;SDS011;43810;50.860;19.226;2024-01-30T00:31:06;16.60;;;7.47;;
58017;SDS011;43810;50.860;19.226;2024-01-30T00:33:32;16.50;;;8.48;;
58017;SDS011;43810;50.860;19.226;2024-01-30T00:35:58;36.08;;;12.48;;
58017;SDS011;43810;50.860;19.226;2024-01-30T00:38:24;24.65;;;9.93;;
58017;SDS011;43810;50.860;19.226;2024-01-30T00:40:49;18.38;;;9.38;;
58017;SDS011;43810;50.860;19.226;2024-01-30T00:43:15;24.77;;;8.65;;
58017;SDS011;43810;50.860;19.226;2024-01-30T00:45:43;17.67;;;9.32;;
58017;SDS011;43810;50.860;19.226;2024-01-30T00:48:09;25.42;;;10.73;;
58017;SDS011;43810;50.860;19.226;2024-01-30T00:50:35;23.00;;;9.98;;
58017;SDS011;43810;50.860;19.226;2024-01-30T00:53:01;14.50;;;7.68;;
58017;SDS011;43810;50.860;19.226;2024-01-30T00:55:26;20.77;;;8.55;;
58017;SDS011;43810;50.860;19.226;2024-01-30T00:57:52;20.75;;;9.50;;
58017;SDS011;43810;50.860;19.226;2024-01-30T01:00:18;18.50;;;9.32;;
58017;SDS011;43810;50.860;19.226;2024-01-30T01:02:45;21.42;;;8.77;;
58017;SDS011;43810;50.860;19.226;2024-01-30T01:05:11;13.45;;;7.25;;
58017;SDS011;43810;50.860;19.226;2024-01-30T01:07:36;15.40;;;7.10;;
58017;SDS011;43810;50.860;19.226;2024-01-30T01:10:02;16.85;;;7.05;;
58017;SDS011;43810;50.860;19.226;2024-01-30T01:12:29;19.48;;;8.50;;
58017;SDS011;43810;50.860;19.226;2024-01-30T01:14:55;24.25;;;7.55;;
58017;SDS011;43810;50.860;19.226;2024-01-30T01:17:21;17.60;;;6.72;;
58017;SDS011;43810;50.860;19.226;2024-01-30T01:19:46;28.20;;;9.30;;
58017;SDS011;43810;50.860;19.226;2024-01-30T01:22:12;30.63;;;11.45;;
58017;SDS011;43810;50.860;19.226;2024-01-30T01:24:38;24.48;;;9.35;;
58017;SDS011;43810;50.860;19.226;2024-01-30T01:27:04;13.15;;;7.35;;
58017;SDS011;43810;50.860;19.226;2024-01-30T01:29:31;9.75;;;6.35;;
58017;SDS011;43810;50.860;19.226;2024-01-30T01:32:00;15.60;;;7.38;;
58017;SDS011;43810;50.860;19.226;2024-01-30T01:34:26;16.23;;;7.65;;
58017;SDS011;43810;50.860;19.226;2024-01-30T01:36:52;25.65;;;8.27;;
58017;SDS011;43810;50.860;19.226;2024-01-30T01:39:20;15.75;;;7.07;;
58017;SDS011;43810;50.860;19.226;2024-01-30T01:41:47;15.05;;;6.22;;
58017;SDS011;43810;50.860;19.226;2024-01-30T01:44:13;17.45;;;6.32;;
58017;SDS011;43810;50.860;19.226;2024-01-30T01:46:39;13.77;;;7.45;;
58017;SDS011;43810;50.860;19.226;2024-01-30T01:49:05;24.42;;;9.80;;
58017;SDS011;43810;50.860;19.226;2024-01-30T01:51:33;26.00;;;7.22;;
58017;SDS011;43810;50.860;19.226;2024-01-30T01:54:01;22.40;;;7.13;;
58017;SDS011;43810;50.860;19.226;2024-01-30T01:56:29;15.73;;;6.90;;
58017;SDS011;43810;50.860;19.226;2024-01-30T01:58:56;12.73;;;6.72;;
58017;SDS011;43810;50.860;19.226;2024-01-30T02:01:29;33.97;;;10.18;;
58017;SDS011;43810;50.860;19.226;2024-01-30T02:03:58;22.85;;;9.55;;
58017;SDS011;43810;50.860;19.226;2024-01-30T02:06:24;13.43;;;7.35;;
58017;SDS011;43810;50.860;19.226;2024-01-30T02:08:51;13.63;;;6.85;;
58017;SDS011;43810;50.860;19.226;2024-01-30T02:11:17;20.13;;;6.35;;
58017;SDS011;43810;50.860;19.226;2024-01-30T02:13:44;15.85;;;8.90;;
58017;SDS011;43810;50.860;19.226;2024-01-30T02:16:10;23.85;;;7.53;;
58017;SDS011;43810;50.860;19.226;2024-01-30T02:18:35;16.45;;;8.85;;
58017;SDS011;43810;50.860;19.226;2024-01-30T02:21:07;13.82;;;6.13;;
58017;SDS011;43810;50.860;19.226;2024-01-30T02:23:33;11.02;;;6.82;;
58017;SDS011;43810;50.860;19.226;2024-01-30T02:26:00;13.60;;;6.10;;
58017;SDS011;43810;50.860;19.226;2024-01-30T02:28:26;12.45;;;6.03;;
58017;SDS011;43810;50.860;19.226;2024-01-30T02:30:53;14.65;;;6.43;;
58017;SDS011;43810;50.860;19.226;2024-01-30T02:33:18;18.00;;;6.43;;
58017;SDS011;43810;50.860;19.226;2024-01-30T02:35:45;23.20;;;8.93;;
58017;SDS011;43810;50.860;19.226;2024-01-30T02:38:10;10.68;;;6.82;;
58017;SDS011;43810;50.860;19.226;2024-01-30T02:40:36;15.15;;;7.25;;
58017;SDS011;43810;50.860;19.226;2024-01-30T02:43:02;21.17;;;7.03;;
58017;SDS011;43810;50.860;19.226;2024-01-30T02:45:29;22.45;;;7.38;;
58017;SDS011;43810;50.860;19.226;2024-01-30T02:47:54;20.42;;;9.45;;
58017;SDS011;43810;50.860;19.226;2024-01-30T02:50:20;17.75;;;7.15;;
58017;SDS011;43810;50.860;19.226;2024-01-30T02:52:46;14.00;;;5.78;;
58017;SDS011;43810;50.860;19.226;2024-01-30T02:55:12;18.52;;;6.05;;
58017;SDS011;43810;50.860;19.226;2024-01-30T02:57:38;40.85;;;9.73;;
58017;SDS011;43810;50.860;19.226;2024-01-30T03:00:04;15.63;;;6.30;;
58017;SDS011;43810;50.860;19.226;2024-01-30T03:02:32;17.50;;;7.22;;
58017;SDS011;43810;50.860;19.226;2024-01-30T03:04:59;15.50;;;6.00;;
58017;SDS011;43810;50.860;19.226;2024-01-30T03:07:25;16.55;;;6.43;;
58017;SDS011;43810;50.860;19.226;2024-01-30T03:09:51;16.33;;;5.95;;
58017;SDS011;43810;50.860;19.226;2024-01-30T03:12:17;13.18;;;5.28;;
58017;SDS011;43810;50.860;19.226;2024-01-30T03:14:42;14.63;;;6.75;;
58017;SDS011;43810;50.860;19.226;2024-01-30T03:17:08;13.93;;;5.93;;
58017;SDS011;43810;50.860;19.226;2024-01-30T03:19:34;11.15;;;4.93;;
58017;SDS011;43810;50.860;19.226;2024-01-30T03:22:00;11.45;;;5.88;;
58017;SDS011;43810;50.860;19.226;2024-01-30T03:24:25;11.68;;;5.90;;
58017;SDS011;43810;50.860;19.226;2024-01-30T03:26:51;13.27;;;6.07;;
58017;SDS011;43810;50.860;19.226;2024-01-30T03:29:17;16.83;;;6.97;;
58017;SDS011;43810;50.860;19.226;2024-01-30T03:31:43;13.20;;;4.90;;
58017;SDS011;43810;50.860;19.226;2024-01-30T03:34:09;24.23;;;8.05;;
58017;SDS011;43810;50.860;19.226;2024-01-30T03:36:34;20.85;;;9.00;;
58017;SDS011;43810;50.860;19.226;2024-01-30T03:39:01;18.92;;;8.50;;
58017;SDS011;43810;50.860;19.226;2024-01-30T03:41:26;25.73;;;9.05;;
58017;SDS011;43810;50.860;19.226;2024-01-30T03:43:52;15.65;;;7.10;;
58017;SDS011;43810;50.860;19.226;2024-01-30T03:46:18;34.17;;;12.48;;
58017;SDS011;43810;50.860;19.226;2024-01-30T03:48:44;32.33;;;11.00;;
58017;SDS011;43810;50.860;19.226;2024-01-30T03:51:10;28.75;;;8.85;;
58017;SDS011;43810;50.860;19.226;2024-01-30T03:53:44;15.25;;;6.90;;
58017;SDS011;43810;50.860;19.226;2024-01-30T03:56:11;29.48;;;11.60;;
58017;SDS011;43810;50.860;19.226;2024-01-30T03:58:41;18.13;;;8.90;;
58017;SDS011;43810;50.860;19.226;2024-01-30T04:01:07;15.43;;;9.10;;
58017;SDS011;43810;50.860;19.226;2024-01-30T04:03:33;12.35;;;7.65;;
58017;SDS011;43810;50.860;19.226;2024-01-30T04:05:58;17.05;;;7.53;;
58017;SDS011;43810;50.860;19.226;2024-01-30T04:08:24;40.13;;;11.70;;
58017;SDS011;43810;50.860;19.226;2024-01-30T04:10:50;21.02;;;8.57;;
58017;SDS011;43810;50.860;19.226;2024-01-30T04:13:16;25.35;;;7.80;;
58017;SDS011;43810;50.860;19.226;2024-01-30T04:15:41;29.25;;;8.52;;
58017;SDS011;43810;50.860;19.226;2024-01-30T04:18:07;34.35;;;10.18;;
58017;SDS011;43810;50.860;19.226;2024-01-30T04:20:33;25.70;;;9.32;;
58017;SDS011;43810;50.860;19.226;2024-01-30T04:22:59;23.52;;;7.38;;
58017;SDS011;43810;50.860;19.226;2024-01-30T04:25:25;16.40;;;6.93;;
58017;SDS011;43810;50.860;19.226;2024-01-30T04:27:50;14.90;;;7.20;;
58017;SDS011;43810;50.860;19.226;2024-01-30T04:30:16;14.95;;;5.88;;
58017;SDS011;43810;50.860;19.226;2024-01-30T04:32:42;6.20;;;4.22;;
58017;SDS011;43810;50.860;19.226;2024-01-30T04:35:08;11.90;;;5.32;;
58017;SDS011;43810;50.860;19.226;2024-01-30T04:37:35;10.10;;;4.15;;
58017;SDS011;43810;50.860;19.226;2024-01-30T04:40:00;13.48;;;5.05;;
58017;SDS011;43810;50.860;19.226;2024-01-30T04:42:26;7.57;;;4.15;;
58017;SDS011;43810;50.860;19.226;2024-01-30T04:44:52;8.10;;;3.83;;
58017;SDS011;43810;50.860;19.226;2024-01-30T04:47:18;10.52;;;4.55;;
58017;SDS011;43810;50.860;19.226;2024-01-30T04:49:43;7.45;;;4.68;;
58017;SDS011;43810;50.860;19.226;2024-01-30T04:52:09;5.93;;;3.17;;
58017;SDS011;43810;50.860;19.226;2024-01-30T04:54:35;9.27;;;4.30;;
58017;SDS011;43810;50.860;19.226;2024-01-30T04:57:01;7.97;;;4.78;;
58017;SDS011;43810;50.860;19.226;2024-01-30T04:59:27;7.28;;;4.28;;
58017;SDS011;43810;50.860;19.226;2024-01-30T05:01:54;9.18;;;4.80;;
58017;SDS011;43810;50.860;19.226;2024-01-30T05:04:19;15.88;;;5.22;;
58017;SDS011;43810;50.860;19.226;2024-01-30T05:06:46;8.52;;;4.90;;
58017;SDS011;43810;50.860;19.226;2024-01-30T05:09:11;11.30;;;4.97;;
58017;SDS011;43810;50.860;19.226;2024-01-30T05:11:38;7.20;;;4.22;;
58017;SDS011;43810;50.860;19.226;2024-01-30T05:14:04;12.88;;;4.72;;
58017;SDS011;43810;50.860;19.226;2024-01-30T05:16:31;13.60;;;4.93;;
58017;SDS011;43810;50.860;19.226;2024-01-30T05:18:57;8.95;;;6.60;;
58017;SDS011;43810;50.860;19.226;2024-01-30T05:21:23;11.40;;;4.65;;
58017;SDS011;43810;50.860;19.226;2024-01-30T05:23:49;12.90;;;5.13;;
58017;SDS011;43810;50.860;19.226;2024-01-30T05:26:15;19.50;;;6.45;;
58017;SDS011;43810;50.860;19.226;2024-01-30T05:28:40;20.15;;;7.22;;
58017;SDS011;43810;50.860;19.226;2024-01-30T05:31:07;21.55;;;7.20;;
58017;SDS011;43810;50.860;19.226;2024-01-30T05:33:33;21.48;;;8.40;;
58017;SDS011;43810;50.860;19.226;2024-01-30T05:35:59;11.50;;;6.00;;
58017;SDS011;43810;50.860;19.226;2024-01-30T05:38:25;16.05;;;7.78;;
58017;SDS011;43810;50.860;19.226;2024-01-30T05:40:50;14.07;;;7.22;;
58017;SDS011;43810;50.860;19.226;2024-01-30T05:43:16;25.88;;;8.57;;
58017;SDS011;43810;50.860;19.226;2024-01-30T05:45:42;27.48;;;7.45;;
58017;SDS011;43810;50.860;19.226;2024-01-30T05:48:07;24.13;;;10.65;;
58017;SDS011;43810;50.860;19.226;2024-01-30T05:50:33;25.85;;;8.98;;
58017;SDS011;43810;50.860;19.226;2024-01-30T05:52:59;25.17;;;8.65;;
58017;SDS011;43810;50.860;19.226;2024-01-30T05:55:25;21.35;;;8.43;;
58017;SDS011;43810;50.860;19.226;2024-01-30T05:57:50;17.40;;;7.25;;
58017;SDS011;43810;50.860;19.226;2024-01-30T06:00:20;17.98;;;8.38;;
58017;SDS011;43810;50.860;19.226;2024-01-30T06:02:45;16.90;;;9.05;;
58017;SDS011;43810;50.860;19.226;2024-01-30T06:05:11;16.27;;;7.80;;
58017;SDS011;43810;50.860;19.226;2024-01-30T06:07:37;14.75;;;7.05;;
58017;SDS011;43810;50.860;19.226;2024-01-30T06:10:03;18.92;;;6.80;;
58017;SDS011;43810;50.860;19.226;2024-01-30T06:12:29;19.88;;;7.80;;
58017;SDS011;43810;50.860;19.226;2024-01-30T06:14:55;23.00;;;7.63;;
58017;SDS011;43810;50.860;19.226;2024-01-30T06:17:22;13.55;;;7.30;;
58017;SDS011;43810;50.860;19.226;2024-01-30T06:19:49;23.65;;;8.25;;
58017;SDS011;43810;50.860;19.226;2024-01-30T06:22:15;20.42;;;6.70;;
58017;SDS011;43810;50.860;19.226;2024-01-30T06:24:41;22.17;;;7.28;;
58017;SDS011;43810;50.860;19.226;2024-01-30T06:27:10;19.83;;;8.00;;
58017;SDS011;43810;50.860;19.226;2024-01-30T06:29:36;14.48;;;6.82;;
58017;SDS011;43810;50.860;19.226;2024-01-30T06:32:02;13.13;;;5.50;;
58017;SDS011;43810;50.860;19.226;2024-01-30T06:34:29;11.60;;;4.90;;
58017;SDS011;43810;50.860;19.226;2024-01-30T06:36:54;13.95;;;6.85;;
58017;SDS011;43810;50.860;19.226;2024-01-30T06:39:20;14.73;;;6.15;;
58017;SDS011;43810;50.860;19.226;2024-01-30T06:41:46;9.55;;;6.00;;
58017;SDS011;43810;50.860;19.226;2024-01-30T06:44:12;10.90;;;5.90;;
58017;SDS011;43810;50.860;19.226;2024-01-30T06:46:38;8.00;;;3.90;;
58017;SDS011;43810;50.860;19.226;2024-01-30T06:49:04;8.68;;;5.00;;
58017;SDS011;43810;50.860;19.226;2024-01-30T06:51:30;19.17;;;7.30;;
58017;SDS011;43810;50.860;19.226;2024-01-30T06:53:56;12.80;;;6.05;;
58017;SDS011;43810;50.860;19.226;2024-01-30T06:56:22;9.93;;;4.03;;
58017;SDS011;43810;50.860;19.226;2024-01-30T06:58:48;16.00;;;5.90;;
58017;SDS011;43810;50.860;19.226;2024-01-30T07:01:15;12.20;;;6.10;;
58017;SDS011;43810;50.860;19.226;2024-01-30T07:03:41;16.17;;;6.55;;
58017;SDS011;43810;50.860;19.226;2024-01-30T07:06:08;11.95;;;6.20;;
58017;SDS011;43810;50.860;19.226;2024-01-30T07:08:34;9.07;;;4.82;;
58017;SDS011;43810;50.860;19.226;2024-01-30T07:11:00;13.20;;;6.15;;
58017;SDS011;43810;50.860;19.226;2024-01-30T07:13:27;12.85;;;5.55;;
58017;SDS011;43810;50.860;19.226;2024-01-30T07:15:53;14.73;;;5.47;;
58017;SDS011;43810;50.860;19.226;2024-01-30T07:18:19;8.80;;;4.25;;
58017;SDS011;43810;50.860;19.226;2024-01-30T07:20:45;8.93;;;4.68;;
58017;SDS011;43810;50.860;19.226;2024-01-30T07:23:15;5.43;;;4.00;;
58017;SDS011;43810;50.860;19.226;2024-01-30T07:25:42;6.63;;;4.82;;
58017;SDS011;43810;50.860;19.226;2024-01-30T07:28:14;7.70;;;3.85;;
58017;SDS011;43810;50.860;19.226;2024-01-30T07:30:42;12.95;;;3.95;;
58017;SDS011;43810;50.860;19.226;2024-01-30T07:33:08;9.38;;;4.57;;
58017;SDS011;43810;50.860;19.226;2024-01-30T07:35:35;9.77;;;4.18;;
58017;SDS011;43810;50.860;19.226;2024-01-30T07:38:01;17.60;;;4.68;;
58017;SDS011;43810;50.860;19.226;2024-01-30T07:40:27;6.10;;;3.53;;
58017;SDS011;43810;50.860;19.226;2024-01-30T07:42:53;14.15;;;5.70;;
58017;SDS011;43810;50.860;19.226;2024-01-30T07:45:19;8.93;;;4.28;;
58017;SDS011;43810;50.860;19.226;2024-01-30T07:47:50;9.63;;;5.57;;
58017;SDS011;43810;50.860;19.226;2024-01-30T07:50:16;6.10;;;3.05;;
58017;SDS011;43810;50.860;19.226;2024-01-30T07:52:43;6.40;;;3.53;;
58017;SDS011;43810;50.860;19.226;2024-01-30T07:55:09;11.75;;;4.43;;
58017;SDS011;43810;50.860;19.226;2024-01-30T07:57:35;11.27;;;4.60;;
58017;SDS011;43810;50.860;19.226;2024-01-30T08:00:03;9.68;;;4.07;;
58017;SDS011;43810;50.860;19.226;2024-01-30T08:02:31;5.65;;;3.67;;
58017;SDS011;43810;50.860;19.226;2024-01-30T08:04:57;7.57;;;4.10;;
58017;SDS011;43810;50.860;19.226;2024-01-30T08:07:22;9.15;;;4.25;;
58017;SDS011;43810;50.860;19.226;2024-01-30T08:09:48;7.45;;;3.08;;
58017;SDS011;43810;50.860;19.226;2024-01-30T08:12:14;6.80;;;3.47;;
58017;SDS011;43810;50.860;19.226;2024-01-30T08:14:40;9.43;;;3.25;;
58017;SDS011;43810;50.860;19.226;2024-01-30T08:17:07;5.00;;;3.40;;
58017;SDS011;43810;50.860;19.226;2024-01-30T08:19:33;14.05;;;5.28;;
58017;SDS011;43810;50.860;19.226;2024-01-30T08:21:59;6.45;;;3.15;;
58017;SDS011;43810;50.860;19.226;2024-01-30T08:24:24;15.57;;;4.18;;
58017;SDS011;43810;50.860;19.226;2024-01-30T08:26:51;9.90;;;4.13;;
58017;SDS011;43810;50.860;19.226;2024-01-30T08:29:16;6.03;;;3.78;;
58017;SDS011;43810;50.860;19.226;2024-01-30T08:31:42;7.47;;;4.00;;
58017;SDS011;43810;50.860;19.226;2024-01-30T08:34:09;8.93;;;4.78;;
58017;SDS011;43810;50.860;19.226;2024-01-30T08:36:35;9.45;;;3.50;;
58017;SDS011;43810;50.860;19.226;2024-01-30T08:39:01;6.60;;;3.67;;
58017;SDS011;43810;50.860;19.226;2024-01-30T08:41:27;9.73;;;4.55;;
58017;SDS011;43810;50.860;19.226;2024-01-30T08:43:54;7.47;;;3.78;;
58017;SDS011;43810;50.860;19.226;2024-01-30T08:46:19;7.20;;;4.07;;
58017;SDS011;43810;50.860;19.226;2024-01-30T08:48:45;5.93;;;3.08;;
58017;SDS011;43810;50.860;19.226;2024-01-30T08:51:12;5.30;;;3.17;;
58017;SDS011;43810;50.860;19.226;2024-01-30T08:53:37;7.03;;;3.55;;
58017;SDS011;43810;50.860;19.226;2024-01-30T08:56:03;10.27;;;3.95;;
58017;SDS011;43810;50.860;19.226;2024-01-30T08:58:31;8.68;;;3.65;;
58017;SDS011;43810;50.860;19.226;2024-01-30T09:00:57;5.95;;;3.45;;
58017;SDS011;43810;50.860;19.226;2024-01-30T09:03:23;4.10;;;2.95;;
58017;SDS011;43810;50.860;19.226;2024-01-30T09:05:49;7.03;;;3.88;;
58017;SDS011;43810;50.860;19.226;2024-01-30T09:08:15;8.50;;;3.80;;
58017;SDS011;43810;50.860;19.226;2024-01-30T09:10:41;8.18;;;3.03;;
58017;SDS011;43810;50.860;19.226;2024-01-30T09:13:07;6.32;;;3.22;;
58017;SDS011;43810;50.860;19.226;2024-01-30T09:15:33;8.88;;;3.67;;
58017;SDS011;43810;50.860;19.226;2024-01-30T09:17:58;6.97;;;3.33;;
58017;SDS011;43810;50.860;19.226;2024-01-30T09:20:24;13.05;;;3.63;;
58017;SDS011;43810;50.860;19.226;2024-01-30T09:22:50;7.93;;;3.35;;
58017;SDS011;43810;50.860;19.226;2024-01-30T09:25:16;7.45;;;3.63;;
58017;SDS011;43810;50.860;19.226;2024-01-30T09:27:41;5.95;;;3.05;;
58017;SDS011;43810;50.860;19.226;2024-01-30T09:30:07;6.03;;;2.90;;
58017;SDS011;43810;50.860;19.226;2024-01-30T09:32:33;4.20;;;2.72;;
58017;SDS011;43810;50.860;19.226;2024-01-30T09:34:59;6.32;;;3.50;;
58017;SDS011;43810;50.860;19.226;2024-01-30T09:37:25;4.15;;;2.42;;
58017;SDS011;43810;50.860;19.226;2024-01-30T09:39:51;8.30;;;3.90;;
58017;SDS011;43810;50.860;19.226;2024-01-30T09:44:57;9.02;;;3.28;;
58017;SDS011;43810;50.860;19.226;2024-01-30T09:47:23;7.18;;;3.75;;
58017;SDS011;43810;50.860;19.226;2024-01-30T09:49:50;13.70;;;3.22;;
58017;SDS011;43810;50.860;19.226;2024-01-30T09:52:16;10.15;;;4.68;;
58017;SDS011;43810;50.860;19.226;2024-01-30T09:54:44;11.93;;;4.60;;
58017;SDS011;43810;50.860;19.226;2024-01-30T09:57:11;8.27;;;3.50;;
58017;SDS011;43810;50.860;19.226;2024-01-30T09:59:37;10.00;;;3.65;;
58017;SDS011;43810;50.860;19.226;2024-01-30T10:02:03;9.60;;;4.32;;
58017;SDS011;43810;50.860;19.226;2024-01-30T10:04:30;7.13;;;3.47;;
58017;SDS011;43810;50.860;19.226;2024-01-30T10:06:55;5.35;;;3.70;;
58017;SDS011;43810;50.860;19.226;2024-01-30T10:09:24;8.80;;;3.38;;
58017;SDS011;43810;50.860;19.226;2024-01-30T10:11:50;4.82;;;3.53;;
58017;SDS011;43810;50.860;19.226;2024-01-30T10:14:17;6.22;;;3.20;;
58017;SDS011;43810;50.860;19.226;2024-01-30T10:16:42;8.70;;;3.60;;
58017;SDS011;43810;50.860;19.226;2024-01-30T10:19:10;8.48;;;3.15;;
58017;SDS011;43810;50.860;19.226;2024-01-30T10:21:36;7.93;;;3.25;;
58017;SDS011;43810;50.860;19.226;2024-01-30T10:24:02;7.47;;;3.65;;
58017;SDS011;43810;50.860;19.226;2024-01-30T10:26:28;5.57;;;3.15;;
58017;SDS011;43810;50.860;19.226;2024-01-30T10:28:55;5.25;;;2.75;;
58017;SDS011;43810;50.860;19.226;2024-01-30T10:31:20;7.53;;;3.75;;
58017;SDS011;43810;50.860;19.226;2024-01-30T10:33:46;6.13;;;3.08;;
58017;SDS011;43810;50.860;19.226;2024-01-30T10:36:13;9.35;;;3.58;;
58017;SDS011;43810;50.860;19.226;2024-01-30T10:38:42;7.00;;;3.60;;
58017;SDS011;43810;50.860;19.226;2024-01-30T10:41:08;7.03;;;3.38;;
58017;SDS011;43810;50.860;19.226;2024-01-30T10:43:41;6.47;;;2.80;;
58017;SDS011;43810;50.860;19.226;2024-01-30T10:46:20;8.15;;;3.65;;
58017;SDS011;43810;50.860;19.226;2024-01-30T10:48:53;8.98;;;3.63;;
58017;SDS011;43810;50.860;19.226;2024-01-30T10:51:26;6.28;;;3.10;;
58017;SDS011;43810;50.860;19.226;2024-01-30T10:53:52;6.13;;;2.92;;
58017;SDS011;43810;50.860;19.226;2024-01-30T10:56:22;8.68;;;3.38;;
58017;SDS011;43810;50.860;19.226;2024-01-30T10:58:50;6.60;;;3.75;;
58017;SDS011;43810;50.860;19.226;2024-01-30T11:01:21;7.78;;;3.20;;
58017;SDS011;43810;50.860;19.226;2024-01-30T11:03:51;5.68;;;2.95;;
58017;SDS011;43810;50.860;19.226;2024-01-30T11:06:21;6.50;;;3.08;;
58017;SDS011;43810;50.860;19.226;2024-01-30T11:09:01;4.57;;;2.92;;
58017;SDS011;43810;50.860;19.226;2024-01-30T11:11:29;6.30;;;2.83;;
58017;SDS011;43810;50.860;19.226;2024-01-30T11:13:55;6.97;;;3.20;;
58017;SDS011;43810;50.860;19.226;2024-01-30T11:16:20;5.32;;;3.05;;
58017;SDS011;43810;50.860;19.226;2024-01-30T11:18:50;10.05;;;3.25;;
58017;SDS011;43810;50.860;19.226;2024-01-30T11:21:19;9.45;;;3.13;;
58017;SDS011;43810;50.860;19.226;2024-01-30T11:23:45;3.58;;;2.58;;
58017;SDS011;43810;50.860;19.226;2024-01-30T11:26:10;6.80;;;3.30;;
58017;SDS011;43810;50.860;19.226;2024-01-30T11:28:37;9.30;;;3.38;;
58017;SDS011;43810;50.860;19.226;2024-01-30T11:31:04;6.00;;;2.50;;
58017;SDS011;43810;50.860;19.226;2024-01-30T11:33:31;7.65;;;3.30;;
58017;SDS011;43810;50.860;19.226;2024-01-30T11:35:57;6.22;;;3.15;;
58017;SDS011;43810;50.860;19.226;2024-01-30T11:38:27;9.48;;;3.08;;
58017;SDS011;43810;50.860;19.226;2024-01-30T11:40:56;10.80;;;3.53;;
58017;SDS011;43810;50.860;19.226;2024-01-30T11:43:23;7.88;;;2.63;;
58017;SDS011;43810;50.860;19.226;2024-01-30T11:45:49;5.50;;;2.50;;
58017;SDS011;43810;50.860;19.226;2024-01-30T11:48:15;6.90;;;2.38;;
58017;SDS011;43810;50.860;19.226;2024-01-30T11:50:41;5.38;;;2.67;;
58017;SDS011;43810;50.860;19.226;2024-01-30T11:53:07;8.25;;;2.55;;
58017;SDS011;43810;50.860;19.226;2024-01-30T11:55:33;7.82;;;3.85;;
58017;SDS011;43810;50.860;19.226;2024-01-30T11:58:01;6.32;;;2.78;;
58017;SDS011;43810;50.860;19.226;2024-01-30T12:00:27;5.90;;;2.80;;
58017;SDS011;43810;50.860;19.226;2024-01-30T12:02:54;7.28;;;3.20;;
58017;SDS011;43810;50.860;19.226;2024-01-30T12:05:21;6.57;;;2.90;;
58017;SDS011;43810;50.860;19.226;2024-01-30T12:07:48;8.13;;;3.13;;
58017;SDS011;43810;50.860;19.226;2024-01-30T12:10:14;3.67;;;2.58;;
58017;SDS011;43810;50.860;19.226;2024-01-30T12:12:47;5.63;;;2.47;;
58017;SDS011;43810;50.860;19.226;2024-01-30T12:15:14;7.68;;;3.78;;
58017;SDS011;43810;50.860;19.226;2024-01-30T12:17:40;4.75;;;2.85;;
58017;SDS011;43810;50.860;19.226;2024-01-30T12:20:06;7.68;;;3.25;;
58017;SDS011;43810;50.860;19.226;2024-01-30T12:22:35;6.13;;;2.60;;
58017;SDS011;43810;50.860;19.226;2024-01-30T12:25:02;10.18;;;3.40;;
58017;SDS011;43810;50.860;19.226;2024-01-30T12:27:29;6.50;;;2.53;;
58017;SDS011;43810;50.860;19.226;2024-01-30T12:29:56;5.72;;;3.05;;
58017;SDS011;43810;50.860;19.226;2024-01-30T12:32:23;4.72;;;2.40;;
58017;SDS011;43810;50.860;19.226;2024-01-30T12:34:49;5.20;;;2.85;;
58017;SDS011;43810;50.860;19.226;2024-01-30T12:37:15;6.32;;;2.60;;
58017;SDS011;43810;50.860;19.226;2024-01-30T12:39:47;4.70;;;2.80;;
58017;SDS011;43810;50.860;19.226;2024-01-30T12:42:13;5.05;;;2.53;;
58017;SDS011;43810;50.860;19.226;2024-01-30T12:44:39;5.18;;;2.88;;
58017;SDS011;43810;50.860;19.226;2024-01-30T12:47:05;6.32;;;2.40;;
58017;SDS011;43810;50.860;19.226;2024-01-30T12:49:31;7.70;;;3.05;;
58017;SDS011;43810;50.860;19.226;2024-01-30T12:51:57;8.85;;;2.75;;
58017;SDS011;43810;50.860;19.226;2024-01-30T12:54:23;6.25;;;3.17;;
58017;SDS011;43810;50.860;19.226;2024-01-30T12:56:49;8.80;;;3.85;;
58017;SDS011;43810;50.860;19.226;2024-01-30T12:59:15;6.95;;;3.10;;
58017;SDS011;43810;50.860;19.226;2024-01-30T13:01:41;8.75;;;3.30;;
58017;SDS011;43810;50.860;19.226;2024-01-30T13:04:07;5.85;;;3.00;;
58017;SDS011;43810;50.860;19.226;2024-01-30T13:06:39;5.65;;;2.63;;
58017;SDS011;43810;50.860;19.226;2024-01-30T13:09:05;7.30;;;2.95;;
58017;SDS011;43810;50.860;19.226;2024-01-30T13:11:33;8.68;;;3.25;;
58017;SDS011;43810;50.860;19.226;2024-01-30T13:14:00;4.97;;;2.22;;
58017;SDS011;43810;50.860;19.226;2024-01-30T13:16:26;7.82;;;2.97;;
58017;SDS011;43810;50.860;19.226;2024-01-30T13:18:51;5.38;;;3.05;;
58017;SDS011;43810;50.860;19.226;2024-01-30T13:21:17;3.58;;;2.13;;
58017;SDS011;43810;50.860;19.226;2024-01-30T13:23:43;4.03;;;2.28;;
58017;SDS011;43810;50.860;19.226;2024-01-30T13:26:09;4.82;;;2.50;;
58017;SDS011;43810;50.860;19.226;2024-01-30T13:28:35;6.32;;;2.53;;
58017;SDS011;43810;50.860;19.226;2024-01-30T13:31:00;4.45;;;2.50;;
58017;SDS011;43810;50.860;19.226;2024-01-30T13:33:26;6.57;;;2.78;;
58017;SDS011;43810;50.860;19.226;2024-01-30T13:35:52;7.40;;;2.72;;
58017;SDS011;43810;50.860;19.226;2024-01-30T13:38:18;4.72;;;2.13;;
58017;SDS011;43810;50.860;19.226;2024-01-30T13:40:43;4.95;;;2.40;;
58017;SDS011;43810;50.860;19.226;2024-01-30T13:43:09;3.10;;;2.00;;
58017;SDS011;43810;50.860;19.226;2024-01-30T13:45:35;6.72;;;2.42;;
58017;SDS011;43810;50.860;19.226;2024-01-30T13:48:01;4.47;;;2.28;;
58017;SDS011;43810;50.860;19.226;2024-01-30T13:50:28;6.10;;;2.20;;
58017;SDS011;43810;50.860;19.226;2024-01-30T13:52:54;5.05;;;2.28;;
58017;SDS011;43810;50.860;19.226;2024-01-30T13:55:20;3.40;;;2.22;;
58017;SDS011;43810;50.860;19.226;2024-01-30T13:57:46;4.70;;;2.72;;
58017;SDS011;43810;50.860;19.226;2024-01-30T14:00:12;8.90;;;2.70;;
58017;SDS011;43810;50.860;19.226;2024-01-30T14:02:41;5.05;;;2.30;;
58017;SDS011;43810;50.860;19.226;2024-01-30T14:05:08;6.25;;;2.50;;
58017;SDS011;43810;50.860;19.226;2024-01-30T14:07:35;4.07;;;2.00;;
58017;SDS011;43810;50.860;19.226;2024-01-30T14:10:03;5.20;;;2.60;;
58017;SDS011;43810;50.860;19.226;2024-01-30T14:12:29;4.47;;;2.05;;
58017;SDS011;43810;50.860;19.226;2024-01-30T14:14:55;5.05;;;2.20;;
58017;SDS011;43810;50.860;19.226;2024-01-30T14:17:21;3.85;;;2.53;;
58017;SDS011;43810;50.860;19.226;2024-01-30T14:19:47;5.97;;;2.28;;
58017;SDS011;43810;50.860;19.226;2024-01-30T14:22:13;4.45;;;2.20;;
58017;SDS011;43810;50.860;19.226;2024-01-30T14:24:39;5.00;;;2.08;;
58017;SDS011;43810;50.860;19.226;2024-01-30T14:27:04;4.10;;;2.25;;